Airport View

Enter AWOS ICAO identifier for current METAR.

ex. KFNL

KSIF 181200Z AUTO 00000KT 10SM OVC120 03/M06 A3052 RMK AO2 T00291063

18 Jan 2020 11:57

Frequency: 119.775

Phone: 336-573-3677

Other Area AWOS: KMTV - KGSO - KINT - KBUY

TAF KGSO 180539Z 1806/1906 14010KT P6SM OVC100 FM181400 16006KT P6SM BKN035 OVC100 FM181600 17007KT P6SM OVC025 FM181800 19010G18KT P6SM -RA OVC018 FM182100 21011G20KT 5SM -RA BR OVC007